Time;durP1;ratioP1;P1;durP2;ratioP2;P2;SDS_P1;SDS_P2;PMS_P1;PMS_P2;Temp;Humidity;BMP_temperature;BMP_pressure;BME280_temperature;BME280_humidity;BME280_pressure;Samples;Min_cycle;Max_cycle;Signal;HPM_P1;HPM_P2
2021/01/09 00:00:15;;;;;;;24.27;14.15;;;0.90;81.30;;;;;;5133184;27;20023;-81
2021/01/09 00:02:41;;;;;;;21.58;12.90;;;0.90;81.50;;;;;;5133080;27;20016;-81
2021/01/09 00:05:08;;;;;;;23.67;13.85;;;1.00;81.60;;;;;;5134379;27;20045;-81
2021/01/09 00:07:35;;;;;;;24.40;13.77;;;0.90;81.30;;;;;;5133131;27;20027;-81
2021/01/09 00:10:03;;;;;;;23.27;14.27;;;1.00;81.20;;;;;;5134324;27;20050;-81
2021/01/09 00:12:28;;;;;;;26.80;14.73;;;0.90;81.10;;;;;;5133331;27;20459;-81
2021/01/09 00:14:54;;;;;;;25.77;14.45;;;0.90;81.00;;;;;;5167511;27;20030;-81
2021/01/09 00:17:20;;;;;;;24.55;13.98;;;0.90;81.10;;;;;;5167808;27;20027;-81
2021/01/09 00:19:46;;;;;;;25.17;14.60;;;0.80;81.20;;;;;;5134128;28;20030;-81
2021/01/09 00:22:11;;;;;;;26.67;14.88;;;0.80;81.30;;;;;;5134211;28;20015;-81
2021/01/09 00:24:38;;;;;;;27.67;15.45;;;0.70;81.40;;;;;;5134094;27;20136;-81
2021/01/09 00:27:12;;;;;;;29.98;15.57;;;0.70;81.50;;;;;;5132860;28;20031;-81
2021/01/09 00:29:39;;;;;;;28.52;15.98;;;0.60;81.70;;;;;;5132712;28;20031;-81
2021/01/09 00:32:05;;;;;;;27.83;15.82;;;0.60;81.70;;;;;;5134043;27;20030;-81
2021/01/09 00:34:31;;;;;;;28.63;16.42;;;0.60;81.90;;;;;;5167521;27;20023;-81
2021/01/09 00:36:57;;;;;;;28.90;15.77;;;0.50;81.90;;;;;;5167551;27;20488;-80
2021/01/09 00:39:23;;;;;;;29.75;15.93;;;0.50;82.00;;;;;;5167193;27;20410;-81
2021/01/09 00:41:48;;;;;;;27.42;15.57;;;0.50;81.90;;;;;;5133861;27;20103;-81
2021/01/09 00:44:14;;;;;;;27.27;15.25;;;0.40;82.00;;;;;;5134001;28;20020;-81
2021/01/09 00:46:40;;;;;;;27.15;15.43;;;0.30;82.00;;;;;;5167353;27;20716;-81
2021/01/09 00:49:06;;;;;;;27.23;14.43;;;0.30;82.20;;;;;;5167100;27;20022;-81
2021/01/09 00:51:31;;;;;;;23.70;13.73;;;0.20;82.20;;;;;;5119171;28;20062;-81
2021/01/09 00:53:57;;;;;;;22.95;13.73;;;0.20;82.40;;;;;;5112053;28;20063;-81
2021/01/09 00:56:23;;;;;;;26.55;15.93;;;0.20;82.50;;;;;;5113313;28;20027;-81
2021/01/09 00:58:48;;;;;;;23.13;13.52;;;0.10;82.70;;;;;;5113441;28;20103;-81
2021/01/09 01:01:14;;;;;;;27.17;13.93;;;0.00;82.80;;;;;;5113095;28;20115;-81
2021/01/09 01:03:42;;;;;;;29.65;15.60;;;0.00;83.50;;;;;;5111908;28;20031;-81
2021/01/09 01:06:08;;;;;;;25.52;14.00;;;0.00;83.30;;;;;;5112194;28;20024;-81
2021/01/09 01:08:34;;;;;;;28.45;15.45;;;0.00;83.50;;;;;;5115620;28;20492;-81
2021/01/09 01:11:00;;;;;;;31.73;16.80;;;0.00;84.10;;;;;;5117034;28;20027;-81
2021/01/09 01:13:25;;;;;;;26.85;14.25;;;0.00;83.40;;;;;;5116968;28;20015;-81
2021/01/09 01:15:51;;;;;;;24.75;14.05;;;0.00;83.40;;;;;;5115670;28;20020;-81
2021/01/09 01:18:24;;;;;;;27.08;14.15;;;0.00;83.50;;;;;;5116949;28;20023;-81
2021/01/09 01:20:50;;;;;;;32.03;16.65;;;0.00;83.50;;;;;;5115506;28;20027;-81
2021/01/09 01:23:17;;;;;;;29.08;15.35;;;0.10;83.40;;;;;;5115561;28;20081;-81
2021/01/09 01:25:43;;;;;;;24.55;14.27;;;0.10;83.40;;;;;;5115514;28;20465;-81
2021/01/09 01:28:08;;;;;;;25.50;13.88;;;0.10;83.40;;;;;;5115537;28;20055;-81
2021/01/09 01:30:34;;;;;;;26.05;14.15;;;0.10;83.40;;;;;;5116693;28;20047;-81
2021/01/09 01:33:00;;;;;;;27.58;14.68;;;0.10;83.30;;;;;;5116741;28;20094;-81
2021/01/09 01:35:26;;;;;;;34.22;20.00;;;0.20;83.40;;;;;;5115499;28;20023;-81
2021/01/09 01:37:52;;;;;;;31.20;16.88;;;0.20;83.30;;;;;;5116477;28;20026;-81
2021/01/09 01:40:18;;;;;;;27.42;15.23;;;0.20;83.40;;;;;;5116587;28;20413;-81
2021/01/09 01:42:44;;;;;;;28.33;15.52;;;0.20;83.60;;;;;;5115264;28;20015;-81
2021/01/09 01:45:10;;;;;;;25.13;15.15;;;0.20;83.40;;;;;;5116459;28;20488;-81
2021/01/09 01:47:36;;;;;;;28.00;15.40;;;0.20;83.40;;;;;;5115175;28;20020;-81
2021/01/09 01:50:03;;;;;;;26.02;15.05;;;0.20;83.30;;;;;;5133131;27;20023;-81
2021/01/09 01:52:29;;;;;;;28.30;15.57;;;0.20;83.10;;;;;;5135894;27;20476;-81
2021/01/09 01:54:55;;;;;;;31.60;16.38;;;0.30;83.00;;;;;;5136421;27;20045;-81
2021/01/09 01:57:21;;;;;;;26.48;14.80;;;0.30;83.00;;;;;;5135603;27;20034;-81
2021/01/09 01:59:46;;;;;;;27.58;15.30;;;0.30;83.10;;;;;;5135442;27;20114;-81
2021/01/09 02:02:13;;;;;;;26.17;14.65;;;0.30;83.20;;;;;;5170145;27;20128;-81
2021/01/09 02:04:46;;;;;;;30.77;15.45;;;0.30;83.20;;;;;;5135396;27;20134;-81
2021/01/09 02:07:16;;;;;;;26.42;14.57;;;0.30;83.10;;;;;;5134395;27;20030;-81
2021/01/09 02:09:49;;;;;;;25.70;14.50;;;0.30;83.10;;;;;;5136671;27;20019;-81
2021/01/09 02:12:34;;;;;;;24.83;14.23;;;0.30;82.90;;;;;;5135366;27;20076;-81
2021/01/09 02:15:01;;;;;;;26.95;14.48;;;0.40;82.90;;;;;;5135165;27;20376;-81
2021/01/09 02:17:28;;;;;;;24.92;14.30;;;0.40;83.00;;;;;;5135007;27;20027;-81
2021/01/09 02:19:58;;;;;;;27.90;16.83;;;0.40;82.90;;;;;;5134828;27;20027;-81
2021/01/09 02:22:25;;;;;;;27.90;15.65;;;0.40;82.90;;;;;;5135024;27;20027;-81
2021/01/09 02:24:50;;;;;;;25.55;14.52;;;0.30;83.00;;;;;;5136294;27;20024;-81
2021/01/09 02:27:17;;;;;;;26.00;15.10;;;0.30;83.20;;;;;;5136064;27;20110;-81
2021/01/09 02:30:01;;;;;;;27.13;15.65;;;0.30;83.80;;;;;;5134354;27;20574;-81
2021/01/09 02:32:52;;;;;;;26.00;15.20;;;0.40;83.70;;;;;;5134883;27;20031;-81
2021/01/09 02:35:21;;;;;;;27.10;15.90;;;0.40;83.50;;;;;;5134841;27;20109;-81
2021/01/09 02:37:47;;;;;;;26.20;14.70;;;0.40;83.40;;;;;;5134665;27;20480;-81
2021/01/09 02:40:19;;;;;;;28.75;16.88;;;0.40;83.40;;;;;;5134589;27;20031;-81
2021/01/09 02:42:45;;;;;;;24.95;14.90;;;0.40;83.70;;;;;;5134704;27;20023;-81
2021/01/09 02:45:11;;;;;;;25.60;15.73;;;0.50;83.70;;;;;;5135727;27;20015;-81
2021/01/09 02:47:37;;;;;;;27.73;15.38;;;0.50;83.50;;;;;;5133319;27;20367;-80
2021/01/09 02:50:04;;;;;;;29.33;16.23;;;0.50;83.60;;;;;;5113989;28;20114;-81
2021/01/09 02:52:30;;;;;;;25.17;15.40;;;0.50;83.30;;;;;;5113057;28;20031;-81
2021/01/09 02:54:56;;;;;;;28.02;16.65;;;0.50;83.20;;;;;;5113766;28;20024;-81
2021/01/09 02:57:21;;;;;;;29.10;16.77;;;0.50;83.10;;;;;;5113697;28;20369;-81
2021/01/09 02:59:47;;;;;;;28.65;15.95;;;0.50;83.10;;;;;;5113572;28;20034;-81
2021/01/09 03:02:13;;;;;;;27.73;16.65;;;0.50;83.30;;;;;;5114932;28;20030;-81
2021/01/09 03:04:39;;;;;;;30.33;15.80;;;0.50;84.00;;;;;;5113549;28;20027;-81
2021/01/09 03:07:04;;;;;;;26.20;15.70;;;0.50;83.50;;;;;;5114696;28;20039;-81
2021/01/09 03:09:30;;;;;;;28.38;15.82;;;0.50;83.60;;;;;;5131848;27;20469;-81
2021/01/09 03:11:56;;;;;;;27.85;16.15;;;0.60;83.60;;;;;;5168714;27;20027;-81
2021/01/09 03:14:22;;;;;;;29.30;17.00;;;0.60;83.60;;;;;;5135214;27;20030;-81
2021/01/09 03:16:47;;;;;;;29.13;17.42;;;0.60;83.60;;;;;;5152331;27;20020;-81
2021/01/09 03:19:13;;;;;;;26.75;15.73;;;0.60;83.60;;;;;;5113173;28;20026;-80
2021/01/09 03:21:39;;;;;;;29.05;17.02;;;0.60;83.60;;;;;;5113149;28;20024;-81
2021/01/09 03:24:05;;;;;;;31.98;18.17;;;0.70;83.50;;;;;;5114643;28;20045;-81
2021/01/09 03:26:31;;;;;;;30.42;16.70;;;0.70;83.40;;;;;;5114479;28;20020;-81
2021/01/09 03:28:57;;;;;;;32.53;18.23;;;0.70;83.40;;;;;;5114032;28;20026;-81
2021/01/09 03:31:24;;;;;;;31.83;18.08;;;0.60;83.60;;;;;;5112931;28;20382;-81
2021/01/09 03:33:50;;;;;;;32.33;18.55;;;0.60;83.60;;;;;;5113479;28;20473;-81
2021/01/09 03:36:16;;;;;;;29.85;17.02;;;0.60;83.60;;;;;;5114768;28;20427;-81
2021/01/09 03:38:42;;;;;;;32.00;18.08;;;0.60;83.60;;;;;;5113335;28;20023;-81
2021/01/09 03:41:08;;;;;;;31.70;17.15;;;0.70;83.70;;;;;;5113314;28;20051;-81
2021/01/09 03:43:34;;;;;;;32.83;18.80;;;0.70;83.80;;;;;;5113402;28;20028;-81
2021/01/09 03:45:59;;;;;;;38.40;20.23;;;0.70;83.70;;;;;;5114486;28;20103;-81
2021/01/09 03:48:25;;;;;;;33.72;18.83;;;0.70;83.70;;;;;;5114443;28;20051;-82
2021/01/09 03:50:51;;;;;;;33.35;18.63;;;0.70;83.80;;;;;;5113317;28;20111;-81
2021/01/09 03:53:17;;;;;;;36.03;19.77;;;0.70;83.90;;;;;;5113243;28;20020;-81
2021/01/09 03:55:43;;;;;;;34.58;19.60;;;0.70;83.80;;;;;;5113181;28;20468;-81
2021/01/09 03:58:09;;;;;;;35.40;19.52;;;0.70;83.80;;;;;;5114376;28;20111;-81
2021/01/09 04:00:34;;;;;;;37.85;21.42;;;0.70;83.90;;;;;;5112971;28;20030;-81
2021/01/09 04:03:00;;;;;;;38.63;20.30;;;0.70;83.80;;;;;;5112986;28;20020;-81
2021/01/09 04:05:26;;;;;;;36.33;19.27;;;0.70;83.70;;;;;;5114287;28;20073;-81
2021/01/09 04:07:52;;;;;;;38.08;21.27;;;0.70;84.30;;;;;;5112982;28;20015;-81
2021/01/09 04:10:17;;;;;;;39.20;21.10;;;0.70;83.70;;;;;;5112843;28;20023;-81
2021/01/09 04:12:43;;;;;;;35.20;19.98;;;0.60;83.80;;;;;;5114324;28;20024;-81
2021/01/09 04:15:09;;;;;;;34.03;20.10;;;0.70;84.00;;;;;;5114070;28;20023;-81
2021/01/09 04:17:35;;;;;;;38.67;20.70;;;0.60;84.00;;;;;;5112812;28;20031;-81
2021/01/09 04:20:01;;;;;;;35.72;19.60;;;0.70;84.00;;;;;;5111874;28;20027;-81
2021/01/09 04:22:26;;;;;;;32.63;18.58;;;0.70;83.80;;;;;;5112484;28;20019;-81
2021/01/09 04:24:52;;;;;;;31.98;18.27;;;0.60;83.80;;;;;;5112599;28;20034;-81
2021/01/09 04:27:18;;;;;;;34.13;19.00;;;0.60;83.80;;;;;;5112534;28;20503;-81
2021/01/09 04:29:44;;;;;;;31.52;17.30;;;0.60;83.80;;;;;;5113622;28;20378;-81
2021/01/09 04:32:09;;;;;;;37.83;20.23;;;0.50;83.90;;;;;;5113136;28;20069;-81
2021/01/09 04:34:35;;;;;;;47.53;26.00;;;0.60;84.00;;;;;;5119539;28;20537;-81
2021/01/09 04:37:01;;;;;;;48.03;24.42;;;0.50;83.90;;;;;;5166915;27;20540;-81
2021/01/09 04:39:26;;;;;;;50.05;27.58;;;0.50;84.40;;;;;;5167465;27;20027;-81
2021/01/09 04:41:52;;;;;;;46.25;27.48;;;0.50;84.30;;;;;;5133146;27;20031;-81
2021/01/09 04:44:18;;;;;;;51.47;27.75;;;0.50;84.50;;;;;;5138610;27;20026;-81
2021/01/09 04:46:49;;;;;;;51.83;26.75;;;0.50;84.50;;;;;;5132447;27;20475;-81
2021/01/09 04:49:16;;;;;;;48.88;25.73;;;0.50;84.50;;;;;;5116642;28;20071;-81
2021/01/09 04:51:42;;;;;;;43.08;24.55;;;0.50;84.40;;;;;;5117813;28;20461;-81
2021/01/09 04:54:13;;;;;;;38.17;21.50;;;0.50;84.40;;;;;;5116489;28;20027;-81
2021/01/09 04:56:40;;;;;;;33.45;18.05;;;0.50;84.60;;;;;;5135309;27;20034;-81
2021/01/09 04:59:05;;;;;;;32.50;19.33;;;0.50;84.20;;;;;;5136988;27;20031;-81
2021/01/09 05:01:32;;;;;;;33.05;18.00;;;0.50;84.10;;;;;;5138041;27;20060;-81
2021/01/09 05:03:59;;;;;;;33.10;19.00;;;0.50;84.20;;;;;;5138233;27;20015;-82
2021/01/09 05:06:25;;;;;;;35.70;18.88;;;0.40;84.20;;;;;;5136792;27;20026;-82
2021/01/09 05:08:50;;;;;;;35.40;18.77;;;0.40;84.20;;;;;;5138143;27;20373;-81
2021/01/09 05:11:19;;;;;;;35.88;20.17;;;0.40;84.20;;;;;;5136524;27;20491;-81
2021/01/09 05:13:48;;;;;;;38.42;20.83;;;0.40;84.20;;;;;;5137933;27;20030;-81
2021/01/09 05:16:14;;;;;;;36.97;19.98;;;0.30;84.20;;;;;;5138018;27;20476;-81
2021/01/09 05:18:41;;;;;;;42.78;23.10;;;0.30;84.30;;;;;;5138229;27;20492;-81
2021/01/09 05:21:10;;;;;;;38.58;20.75;;;0.30;85.00;;;;;;5136515;27;20023;-81
2021/01/09 05:23:51;;;;;;;37.60;21.25;;;0.30;85.10;;;;;;5137719;27;20023;-81
2021/01/09 05:26:21;;;;;;;39.60;21.83;;;0.30;85.10;;;;;;5136469;27;20019;-81
2021/01/09 05:28:58;;;;;;;42.77;23.63;;;0.30;85.00;;;;;;5136489;27;20423;-82
2021/01/09 05:31:25;;;;;;;36.75;19.75;;;0.30;84.90;;;;;;5137576;27;20288;-81
2021/01/09 05:33:51;;;;;;;38.47;21.42;;;0.40;85.30;;;;;;5137596;27;20098;-81
2021/01/09 05:36:18;;;;;;;32.83;18.55;;;0.40;85.10;;;;;;5137874;27;20376;-81
2021/01/09 05:38:45;;;;;;;39.40;21.70;;;0.40;85.20;;;;;;5137417;27;20062;-82
2021/01/09 05:41:18;;;;;;;35.60;19.92;;;0.40;85.10;;;;;;5137497;27;20480;-81
2021/01/09 05:44:06;;;;;;;35.83;19.65;;;0.50;85.20;;;;;;5136281;27;20440;-80
2021/01/09 05:46:34;;;;;;;35.13;19.75;;;0.50;85.10;;;;;;5136024;27;20114;-81
2021/01/09 05:49:00;;;;;;;40.22;21.65;;;0.50;85.10;;;;;;5132621;27;20019;-81
2021/01/09 05:51:31;;;;;;;48.13;26.70;;;0.50;85.10;;;;;;5137203;27;20537;-81
2021/01/09 05:53:57;;;;;;;40.22;21.75;;;0.50;85.10;;;;;;5135106;27;20027;-80
2021/01/09 05:56:23;;;;;;;45.03;24.02;;;0.50;85.40;;;;;;5135474;27;20076;-81
2021/01/09 05:58:51;;;;;;;41.47;23.08;;;0.50;85.30;;;;;;5136908;27;20019;-81
2021/01/09 06:01:26;;;;;;;40.80;22.42;;;0.60;85.30;;;;;;5126578;27;20393;-81
2021/01/09 06:04:07;;;;;;;40.58;22.02;;;0.60;85.30;;;;;;5115858;28;20055;-81
2021/01/09 06:06:46;;;;;;;36.95;19.83;;;0.60;85.90;;;;;;5114656;28;20076;-81
2021/01/09 06:09:21;;;;;;;43.63;23.60;;;0.60;85.20;;;;;;5114365;28;20114;-81
2021/01/09 06:11:47;;;;;;;46.45;24.27;;;0.60;85.30;;;;;;5114381;28;20023;-81
2021/01/09 06:14:13;;;;;;;46.92;25.13;;;0.60;85.20;;;;;;5114388;28;20485;-81
2021/01/09 06:16:43;;;;;;;44.92;23.90;;;0.60;85.20;;;;;;5115515;28;20028;-81
2021/01/09 06:19:10;;;;;;;45.03;22.93;;;0.60;85.30;;;;;;5114036;28;20034;-82
2021/01/09 06:21:37;;;;;;;44.22;23.70;;;0.60;85.40;;;;;;5113632;28;20325;-81
2021/01/09 06:24:05;;;;;;;44.85;24.17;;;0.60;85.50;;;;;;5114037;28;20351;-81
2021/01/09 06:26:32;;;;;;;44.75;24.23;;;0.70;85.70;;;;;;5115025;28;20362;-81
2021/01/09 06:29:20;;;;;;;39.40;21.83;;;0.70;85.60;;;;;;5115278;28;20039;-81
2021/01/09 06:31:55;;;;;;;42.90;24.02;;;0.70;85.60;;;;;;5115254;28;20393;-81
2021/01/09 06:34:29;;;;;;;43.28;24.35;;;0.70;86.20;;;;;;5114176;28;20863;-80
2021/01/09 06:37:03;;;;;;;42.70;22.98;;;0.70;85.50;;;;;;5115043;28;20034;-79
2021/01/09 06:39:39;;;;;;;45.75;24.38;;;0.70;85.40;;;;;;5113404;28;20541;-78
2021/01/09 06:42:06;;;;;;;48.45;27.15;;;0.80;85.40;;;;;;5113993;28;20023;-79
2021/01/09 06:44:32;;;;;;;45.88;24.52;;;0.70;86.20;;;;;;5115422;28;20022;-78
2021/01/09 06:46:58;;;;;;;52.05;25.15;;;0.70;85.90;;;;;;5114105;28;20381;-79
2021/01/09 06:49:26;;;;;;;43.75;24.02;;;0.70;85.70;;;;;;5114842;28;20052;-78
2021/01/09 06:52:02;;;;;;;52.50;25.70;;;0.80;85.80;;;;;;5114413;28;20028;-79
2021/01/09 06:54:28;;;;;;;45.90;24.20;;;0.80;85.80;;;;;;5113520;28;20035;-78
2021/01/09 06:57:03;;;;;;;45.40;24.90;;;0.80;85.80;;;;;;5114838;28;20097;-78
2021/01/09 06:59:37;;;;;;;46.17;25.17;;;0.90;85.90;;;;;;5114006;28;20065;-78
2021/01/09 07:02:09;;;;;;;44.95;24.10;;;0.90;85.70;;;;;;5113793;28;20148;-79
2021/01/09 07:04:50;;;;;;;45.47;25.70;;;0.90;85.70;;;;;;5113778;28;20024;-79
2021/01/09 07:07:34;;;;;;;50.78;26.95;;;0.90;85.70;;;;;;5114072;28;20458;-78
2021/01/09 07:10:20;;;;;;;49.33;25.45;;;0.90;85.70;;;;;;5113773;28;20118;-78
2021/01/09 07:12:55;;;;;;;47.08;26.45;;;0.90;85.80;;;;;;5113965;28;20044;-79
2021/01/09 07:15:22;;;;;;;49.25;27.85;;;1.00;85.80;;;;;;5113893;28;20046;-78
2021/01/09 07:17:56;;;;;;;46.78;24.48;;;1.00;85.70;;;;;;5113513;28;20019;-78
2021/01/09 07:20:26;;;;;;;47.03;25.90;;;1.00;85.80;;;;;;5114698;28;20019;-78
2021/01/09 07:23:00;;;;;;;53.60;29.63;;;1.00;85.90;;;;;;5114841;28;20067;-79
2021/01/09 07:25:33;;;;;;;54.42;28.30;;;1.00;86.00;;;;;;5114899;28;20024;-77
2021/01/09 07:28:02;;;;;;;53.22;29.98;;;1.10;86.10;;;;;;5114647;28;20114;-77
2021/01/09 07:30:29;;;;;;;48.03;26.35;;;1.10;86.20;;;;;;5113385;28;20052;-77
2021/01/09 07:32:56;;;;;;;49.95;28.65;;;1.10;86.10;;;;;;5113409;28;20100;-76
2021/01/09 07:35:31;;;;;;;49.35;27.38;;;1.20;86.10;;;;;;5113422;28;20028;-76
2021/01/09 07:38:02;;;;;;;45.58;24.33;;;1.20;86.00;;;;;;5115110;28;20027;-76
2021/01/09 07:40:32;;;;;;;53.20;29.10;;;1.20;85.90;;;;;;5114456;28;20051;-76
2021/01/09 07:42:58;;;;;;;50.87;28.90;;;1.20;85.60;;;;;;5112927;28;20057;-76
2021/01/09 07:45:30;;;;;;;50.50;25.70;;;1.20;85.70;;;;;;5114627;28;20024;-76
2021/01/09 07:47:57;;;;;;;49.03;27.15;;;1.30;85.70;;;;;;5112750;28;20015;-77
2021/01/09 07:50:23;;;;;;;50.10;26.88;;;1.30;85.70;;;;;;5114357;28;20016;-77
2021/01/09 07:53:04;;;;;;;53.45;27.10;;;1.30;85.70;;;;;;5113003;28;20035;-76
2021/01/09 07:55:44;;;;;;;46.63;25.67;;;1.30;85.60;;;;;;5112669;28;20080;-77
2021/01/09 07:58:10;;;;;;;56.57;31.43;;;1.30;85.60;;;;;;5114193;28;20027;-82
2021/01/09 08:00:39;;;;;;;54.17;28.08;;;1.30;85.70;;;;;;5114204;28;20051;-78
2021/01/09 08:03:05;;;;;;;53.70;29.30;;;1.30;86.00;;;;;;5112812;28;20020;-78
2021/01/09 08:05:31;;;;;;;55.10;28.27;;;1.40;85.90;;;;;;5112766;28;20031;-81
2021/01/09 08:07:57;;;;;;;54.75;30.75;;;1.40;85.70;;;;;;5113775;28;20020;-81
2021/01/09 08:10:25;;;;;;;57.65;30.48;;;1.40;85.60;;;;;;5112718;28;20476;-78
2021/01/09 08:13:03;;;;;;;206.30;108.65;;;1.40;85.80;;;;;;5113742;28;20023;-79
2021/01/09 08:15:30;;;;;;;165.07;74.72;;;1.40;85.90;;;;;;5113837;28;20036;-78
2021/01/09 08:17:59;;;;;;;100.82;57.28;;;1.50;86.10;;;;;;5112628;28;20023;-77
2021/01/09 08:20:25;;;;;;;129.02;57.45;;;1.60;85.90;;;;;;5114760;28;20020;-78
2021/01/09 08:23:04;;;;;;;62.58;33.25;;;1.70;85.60;;;;;;5112396;28;20024;-77
2021/01/09 08:25:33;;;;;;;84.75;39.35;;;1.70;85.10;;;;;;5113904;28;20034;-79
2021/01/09 08:28:03;;;;;;;87.80;39.85;;;1.70;85.50;;;;;;5113825;28;20051;-79
2021/01/09 08:30:34;;;;;;;99.13;52.47;;;1.80;85.60;;;;;;5113688;28;20512;-78
2021/01/09 08:33:00;;;;;;;59.53;35.63;;;1.90;85.40;;;;;;5113546;28;20035;-77
2021/01/09 08:35:26;;;;;;;69.53;36.08;;;1.90;85.00;;;;;;5113813;28;20050;-78
2021/01/09 08:37:53;;;;;;;69.25;38.42;;;2.00;85.10;;;;;;5112278;28;20027;-77
2021/01/09 08:40:19;;;;;;;59.92;33.55;;;2.00;84.80;;;;;;5113513;28;20036;-77
2021/01/09 08:43:12;;;;;;;66.15;36.00;;;2.10;84.60;;;;;;5112245;28;20020;-77
2021/01/09 08:45:48;;;;;;;73.10;40.38;;;2.10;84.00;;;;;;5112652;28;20036;-77
2021/01/09 08:48:22;;;;;;;85.15;42.60;;;2.20;83.90;;;;;;5112179;28;20023;-77
2021/01/09 08:50:54;;;;;;;66.18;35.72;;;2.20;83.80;;;;;;5113220;28;20055;-77
2021/01/09 08:53:20;;;;;;;70.72;42.15;;;2.20;83.80;;;;;;5113490;28;20112;-76
2021/01/09 08:55:50;;;;;;;69.63;36.00;;;2.30;84.00;;;;;;5113742;28;20027;-76
2021/01/09 08:58:16;;;;;;;66.30;33.10;;;2.30;83.70;;;;;;5113707;28;20462;-76
2021/01/09 09:00:42;;;;;;;102.18;38.65;;;2.30;83.10;;;;;;5112344;28;20043;-76
2021/01/09 09:03:10;;;;;;;335.33;79.80;;;2.30;83.00;;;;;;5112198;28;20078;-76
2021/01/09 09:05:39;;;;;;;175.63;47.00;;;2.30;83.20;;;;;;5113503;28;20526;-76
2021/01/09 09:08:09;;;;;;;70.35;30.83;;;2.30;83.10;;;;;;5112267;28;20110;-76
2021/01/09 09:10:34;;;;;;;66.28;34.65;;;2.40;82.90;;;;;;5112163;28;20366;-76
2021/01/09 09:13:20;;;;;;;51.03;29.88;;;2.40;82.70;;;;;;5112466;28;20073;-78
2021/01/09 09:15:47;;;;;;;55.97;30.02;;;2.40;82.50;;;;;;5113863;28;20022;-76
2021/01/09 09:18:13;;;;;;;89.90;47.60;;;2.40;82.20;;;;;;5111901;28;20049;-76
2021/01/09 09:20:45;;;;;;;80.10;45.20;;;2.40;82.60;;;;;;5113363;28;20027;-76
2021/01/09 09:23:18;;;;;;;54.70;30.90;;;2.40;82.30;;;;;;5113378;28;20020;-76
2021/01/09 09:25:45;;;;;;;55.53;30.15;;;2.40;82.50;;;;;;5112298;28;20035;-76
2021/01/09 09:28:11;;;;;;;52.50;29.35;;;2.50;82.60;;;;;;5115126;28;20030;-76
2021/01/09 09:30:36;;;;;;;48.35;28.65;;;2.50;82.50;;;;;;5115595;28;20134;-76
2021/01/09 09:33:13;;;;;;;46.38;25.92;;;2.60;82.40;;;;;;5116357;28;20039;-76
2021/01/09 09:35:40;;;;;;;50.30;26.98;;;2.60;81.30;;;;;;5117686;28;20434;-76
2021/01/09 09:38:09;;;;;;;48.72;26.27;;;2.60;81.50;;;;;;5116735;28;20106;-76
2021/01/09 09:40:36;;;;;;;63.10;36.10;;;2.60;81.50;;;;;;5116721;28;20372;-76
2021/01/09 09:43:17;;;;;;;61.58;32.00;;;2.60;81.80;;;;;;5115180;28;20023;-76
2021/01/09 09:46:05;;;;;;;53.75;30.60;;;2.60;81.70;;;;;;5116560;28;20077;-75
2021/01/09 09:48:39;;;;;;;62.78;33.13;;;2.70;81.40;;;;;;5116654;28;20099;-76
2021/01/09 09:51:06;;;;;;;48.90;26.80;;;2.70;81.30;;;;;;5115544;28;20027;-76
2021/01/09 09:53:35;;;;;;;50.05;27.00;;;2.70;80.70;;;;;;5116857;28;20342;-76
2021/01/09 09:56:19;;;;;;;269.27;108.30;;;2.80;80.90;;;;;;5115279;28;20027;-76
2021/01/09 09:58:46;;;;;;;240.60;97.70;;;2.80;80.90;;;;;;5116373;28;20034;-76
2021/01/09 10:01:22;;;;;;;452.45;188.45;;;2.80;81.00;;;;;;5116739;28;20023;-77
2021/01/09 10:03:51;;;;;;;347.67;138.35;;;2.90;80.70;;;;;;5116335;28;20534;-77
2021/01/09 10:06:17;;;;;;;277.02;118.18;;;2.90;80.70;;;;;;5114841;28;20020;-76
2021/01/09 10:08:44;;;;;;;74.90;37.38;;;2.90;80.60;;;;;;5116364;28;20016;-76
2021/01/09 10:11:10;;;;;;;230.38;105.32;;;2.90;80.10;;;;;;5116314;28;20530;-77
2021/01/09 10:13:36;;;;;;;96.60;50.80;;;2.90;80.40;;;;;;5116191;28;20026;-76
2021/01/09 10:16:02;;;;;;;80.10;45.00;;;2.90;80.30;;;;;;5116625;28;20102;-76
2021/01/09 10:18:30;;;;;;;56.80;31.45;;;2.90;80.30;;;;;;5116601;28;20052;-76
2021/01/09 10:20:56;;;;;;;57.47;33.33;;;2.90;80.50;;;;;;5115972;28;20051;-75
2021/01/09 10:23:23;;;;;;;44.47;26.20;;;2.90;79.70;;;;;;5116935;28;20024;-76
2021/01/09 10:25:48;;;;;;;49.80;28.60;;;2.90;79.70;;;;;;5114583;28;20023;-75
2021/01/09 10:28:14;;;;;;;47.90;26.42;;;2.80;79.70;;;;;;5116375;28;20345;-76
2021/01/09 10:30:40;;;;;;;52.97;31.80;;;2.80;80.00;;;;;;5114843;28;20055;-76
2021/01/09 10:33:07;;;;;;;93.72;36.22;;;2.90;80.30;;;;;;5116020;27;20030;-76
2021/01/09 10:35:33;;;;;;;51.13;27.83;;;3.00;80.10;;;;;;5115821;27;20017;-76
2021/01/09 10:37:59;;;;;;;60.65;33.83;;;3.00;79.50;;;;;;5114386;28;20032;-76
2021/01/09 10:40:25;;;;;;;51.78;29.45;;;3.00;79.50;;;;;;5115488;28;20028;-77
2021/01/09 10:42:51;;;;;;;54.05;32.33;;;3.00;79.50;;;;;;5115671;28;20024;-77
2021/01/09 10:45:17;;;;;;;55.88;31.02;;;2.90;79.90;;;;;;5114388;28;20019;-77
2021/01/09 10:47:43;;;;;;;48.95;26.52;;;3.00;79.90;;;;;;5114255;28;20393;-77
2021/01/09 10:50:09;;;;;;;47.20;27.83;;;3.00;79.90;;;;;;5114453;28;20027;-76
2021/01/09 10:52:35;;;;;;;55.83;34.17;;;3.00;79.50;;;;;;5114015;28;20027;-78
2021/01/09 10:55:02;;;;;;;69.47;38.83;;;3.10;79.80;;;;;;5113973;28;20484;-74
2021/01/09 10:57:28;;;;;;;80.20;43.25;;;3.10;79.70;;;;;;5113871;28;20119;-74
2021/01/09 10:59:54;;;;;;;55.20;31.00;;;3.20;79.50;;;;;;5113915;28;20062;-78
2021/01/09 11:02:19;;;;;;;55.50;30.33;;;3.10;79.30;;;;;;5113995;28;20019;-78
2021/01/09 11:04:45;;;;;;;64.85;32.90;;;3.10;79.30;;;;;;5115043;28;20107;-77
2021/01/09 11:07:11;;;;;;;52.13;29.15;;;3.10;79.00;;;;;;5115035;28;20064;-78
2021/01/09 11:09:36;;;;;;;48.47;28.10;;;3.00;78.80;;;;;;5115379;28;20454;-78
2021/01/09 11:12:02;;;;;;;47.97;25.92;;;3.00;78.80;;;;;;5113760;28;20031;-79
2021/01/09 11:14:28;;;;;;;54.22;29.33;;;2.90;79.40;;;;;;5114200;28;20061;-77
2021/01/09 11:16:59;;;;;;;50.08;28.15;;;2.90;79.40;;;;;;5114039;28;20019;-76
2021/01/09 11:19:25;;;;;;;50.08;27.70;;;2.90;79.00;;;;;;5114945;28;20112;-76
2021/01/09 11:21:50;;;;;;;74.88;27.92;;;2.90;79.10;;;;;;5115123;28;20473;-76
2021/01/09 11:24:16;;;;;;;50.47;26.35;;;2.80;78.90;;;;;;5114774;28;20027;-76
2021/01/09 11:26:42;;;;;;;46.38;26.52;;;2.80;79.00;;;;;;5114684;27;20023;-77
2021/01/09 11:29:08;;;;;;;47.67;25.98;;;2.80;79.00;;;;;;5113432;28;20023;-76
2021/01/09 11:31:33;;;;;;;57.08;26.95;;;2.80;79.40;;;;;;5112954;28;20050;-76
2021/01/09 11:33:59;;;;;;;46.85;26.02;;;2.90;79.60;;;;;;5113128;28;20110;-75
2021/01/09 11:36:25;;;;;;;55.13;28.90;;;2.90;79.00;;;;;;5114390;28;20040;-76
2021/01/09 11:38:51;;;;;;;49.72;25.10;;;3.00;78.50;;;;;;5114193;28;20126;-78
2021/01/09 11:41:17;;;;;;;42.88;23.35;;;2.90;78.50;;;;;;5111896;28;20024;-75
2021/01/09 11:43:43;;;;;;;44.20;24.75;;;3.00;78.10;;;;;;5112197;28;20497;-76
2021/01/09 11:46:11;;;;;;;39.17;23.05;;;2.90;78.10;;;;;;5114674;28;20056;-76
2021/01/09 11:48:39;;;;;;;44.33;25.88;;;3.00;78.50;;;;;;5114394;28;20473;-76
2021/01/09 11:51:05;;;;;;;45.85;26.58;;;2.90;78.50;;;;;;5113820;28;20119;-76
2021/01/09 11:53:31;;;;;;;47.30;26.00;;;2.90;77.70;;;;;;5114434;28;20091;-76
2021/01/09 11:55:57;;;;;;;48.65;26.85;;;2.90;78.00;;;;;;5113001;28;20027;-76
2021/01/09 11:58:22;;;;;;;42.28;24.20;;;2.80;77.70;;;;;;5114667;28;20038;-75
2021/01/09 12:00:50;;;;;;;44.60;24.83;;;2.80;77.90;;;;;;5114085;28;20877;-76
2021/01/09 12:03:16;;;;;;;41.13;23.20;;;2.80;78.00;;;;;;5114132;28;20020;-76
2021/01/09 12:05:42;;;;;;;40.47;23.33;;;2.80;78.10;;;;;;5113975;28;20019;-77
2021/01/09 12:08:08;;;;;;;43.47;24.17;;;2.80;78.40;;;;;;5113911;28;20020;-76
2021/01/09 12:10:33;;;;;;;47.40;24.95;;;2.90;78.40;;;;;;5113954;28;20369;-77
2021/01/09 12:13:03;;;;;;;36.55;20.98;;;2.90;78.10;;;;;;5113722;28;20038;-76
2021/01/09 12:15:28;;;;;;;44.80;26.00;;;2.90;77.90;;;;;;5112635;28;20103;-77
2021/01/09 12:17:55;;;;;;;45.40;25.48;;;2.80;77.40;;;;;;5112905;28;20070;-76
2021/01/09 12:20:20;;;;;;;42.38;23.27;;;2.80;77.70;;;;;;5113739;28;20054;-76
2021/01/09 12:22:47;;;;;;;43.47;23.70;;;2.90;78.00;;;;;;5114304;28;20019;-76
2021/01/09 12:25:13;;;;;;;43.97;24.88;;;2.90;77.90;;;;;;5114361;28;20049;-76
2021/01/09 12:27:38;;;;;;;44.95;24.90;;;2.90;77.90;;;;;;5114017;28;20401;-76
2021/01/09 12:30:05;;;;;;;45.85;25.85;;;2.80;77.90;;;;;;5112727;28;20485;-76
2021/01/09 12:32:30;;;;;;;42.17;24.08;;;2.90;78.10;;;;;;5113926;28;20386;-77
2021/01/09 12:34:56;;;;;;;48.50;26.02;;;2.90;78.50;;;;;;5113769;28;20016;-77
2021/01/09 12:37:22;;;;;;;44.13;24.23;;;2.90;78.00;;;;;;5112546;28;20377;-76
2021/01/09 12:39:47;;;;;;;39.63;22.58;;;2.90;77.90;;;;;;5114280;28;20031;-76